sensor_id;sensor_type;location;lat;lon;timestamp;P1;durP1;ratioP1;P2;durP2;ratioP2
63906;SDS011;50075;49.484;11.238;2023-07-16T00:00:45;18.73;;;8.43;;
63906;SDS011;50075;49.484;11.238;2023-07-16T00:03:10;18.20;;;7.60;;
63906;SDS011;50075;49.484;11.238;2023-07-16T00:05:36;16.40;;;7.43;;
63906;SDS011;50075;49.484;11.238;2023-07-16T00:08:01;17.45;;;7.63;;
63906;SDS011;50075;49.484;11.238;2023-07-16T00:10:26;20.97;;;8.93;;
63906;SDS011;50075;49.484;11.238;2023-07-16T00:12:52;19.87;;;8.07;;
63906;SDS011;50075;49.484;11.238;2023-07-16T00:15:17;20.65;;;8.30;;
63906;SDS011;50075;49.484;11.238;2023-07-16T00:17:42;18.25;;;8.20;;
63906;SDS011;50075;49.484;11.238;2023-07-16T00:20:08;18.83;;;7.50;;
63906;SDS011;50075;49.484;11.238;2023-07-16T00:22:34;16.98;;;7.47;;
63906;SDS011;50075;49.484;11.238;2023-07-16T00:24:59;16.03;;;7.33;;
63906;SDS011;50075;49.484;11.238;2023-07-16T00:27:24;25.43;;;9.20;;
63906;SDS011;50075;49.484;11.238;2023-07-16T00:29:49;18.00;;;7.73;;
63906;SDS011;50075;49.484;11.238;2023-07-16T00:32:15;27.30;;;9.33;;
63906;SDS011;50075;49.484;11.238;2023-07-16T00:34:40;19.65;;;8.40;;
63906;SDS011;50075;49.484;11.238;2023-07-16T00:37:05;19.67;;;8.20;;
63906;SDS011;50075;49.484;11.238;2023-07-16T00:39:30;18.13;;;7.37;;
63906;SDS011;50075;49.484;11.238;2023-07-16T00:41:56;22.50;;;8.80;;
63906;SDS011;50075;49.484;11.238;2023-07-16T00:44:21;25.45;;;9.32;;
63906;SDS011;50075;49.484;11.238;2023-07-16T00:46:46;22.15;;;8.65;;
63906;SDS011;50075;49.484;11.238;2023-07-16T00:49:12;21.33;;;8.50;;
63906;SDS011;50075;49.484;11.238;2023-07-16T00:51:37;19.17;;;8.00;;
63906;SDS011;50075;49.484;11.238;2023-07-16T00:54:02;15.95;;;7.95;;
63906;SDS011;50075;49.484;11.238;2023-07-16T00:56:28;21.20;;;8.85;;
63906;SDS011;50075;49.484;11.238;2023-07-16T00:58:54;16.70;;;7.93;;
63906;SDS011;50075;49.484;11.238;2023-07-16T01:01:19;26.20;;;9.93;;
63906;SDS011;50075;49.484;11.238;2023-07-16T01:03:44;20.07;;;8.50;;
63906;SDS011;50075;49.484;11.238;2023-07-16T01:06:14;18.80;;;7.93;;
63906;SDS011;50075;49.484;11.238;2023-07-16T01:08:42;20.67;;;8.68;;
63906;SDS011;50075;49.484;11.238;2023-07-16T01:11:09;19.90;;;8.40;;
63906;SDS011;50075;49.484;11.238;2023-07-16T01:13:35;20.50;;;8.68;;
63906;SDS011;50075;49.484;11.238;2023-07-16T01:16:02;21.02;;;8.60;;
63906;SDS011;50075;49.484;11.238;2023-07-16T01:18:27;28.88;;;10.13;;
63906;SDS011;50075;49.484;11.238;2023-07-16T01:20:52;20.07;;;8.63;;
63906;SDS011;50075;49.484;11.238;2023-07-16T01:31:08;34.50;;;12.65;;
63906;SDS011;50075;49.484;11.238;2023-07-16T01:33:33;15.95;;;6.88;;
63906;SDS011;50075;49.484;11.238;2023-07-16T01:35:59;15.20;;;6.53;;
63906;SDS011;50075;49.484;11.238;2023-07-16T01:38:24;16.95;;;6.55;;
63906;SDS011;50075;49.484;11.238;2023-07-16T01:40:50;14.98;;;5.53;;
63906;SDS011;50075;49.484;11.238;2023-07-16T01:43:15;14.60;;;5.70;;
63906;SDS011;50075;49.484;11.238;2023-07-16T01:45:40;12.57;;;5.30;;
63906;SDS011;50075;49.484;11.238;2023-07-16T01:48:29;20.27;;;8.15;;
63906;SDS011;50075;49.484;11.238;2023-07-16T01:50:55;11.20;;;4.63;;
63906;SDS011;50075;49.484;11.238;2023-07-16T01:53:20;17.77;;;6.10;;
63906;SDS011;50075;49.484;11.238;2023-07-16T01:55:45;15.00;;;4.97;;
63906;SDS011;50075;49.484;11.238;2023-07-16T01:58:11;16.67;;;5.20;;
63906;SDS011;50075;49.484;11.238;2023-07-16T02:00:36;13.57;;;5.07;;
63906;SDS011;50075;49.484;11.238;2023-07-16T02:03:01;13.73;;;5.55;;
63906;SDS011;50075;49.484;11.238;2023-07-16T02:05:27;19.60;;;5.93;;
63906;SDS011;50075;49.484;11.238;2023-07-16T02:07:52;13.90;;;5.82;;
63906;SDS011;50075;49.484;11.238;2023-07-16T02:10:17;11.57;;;4.70;;
63906;SDS011;50075;49.484;11.238;2023-07-16T02:12:43;10.82;;;4.45;;
63906;SDS011;50075;49.484;11.238;2023-07-16T02:15:08;13.90;;;4.80;;
63906;SDS011;50075;49.484;11.238;2023-07-16T02:17:33;22.38;;;6.57;;
63906;SDS011;50075;49.484;11.238;2023-07-16T02:19:59;14.10;;;5.20;;
63906;SDS011;50075;49.484;11.238;2023-07-16T02:22:24;18.63;;;5.87;;
63906;SDS011;50075;49.484;11.238;2023-07-16T02:24:49;13.93;;;5.20;;
63906;SDS011;50075;49.484;11.238;2023-07-16T02:27:14;15.40;;;5.80;;
63906;SDS011;50075;49.484;11.238;2023-07-16T02:29:40;15.48;;;5.30;;
63906;SDS011;50075;49.484;11.238;2023-07-16T02:32:05;21.63;;;8.73;;
63906;SDS011;50075;49.484;11.238;2023-07-16T02:34:30;30.45;;;6.60;;
63906;SDS011;50075;49.484;11.238;2023-07-16T02:36:56;12.73;;;4.57;;
63906;SDS011;50075;49.484;11.238;2023-07-16T02:39:21;19.57;;;5.60;;
63906;SDS011;50075;49.484;11.238;2023-07-16T02:41:46;13.10;;;4.97;;
63906;SDS011;50075;49.484;11.238;2023-07-16T02:44:11;14.48;;;4.80;;
63906;SDS011;50075;49.484;11.238;2023-07-16T02:46:37;18.40;;;5.70;;
63906;SDS011;50075;49.484;11.238;2023-07-16T02:49:02;13.40;;;5.00;;
63906;SDS011;50075;49.484;11.238;2023-07-16T02:51:28;32.40;;;15.52;;
63906;SDS011;50075;49.484;11.238;2023-07-16T02:53:53;13.05;;;4.93;;
63906;SDS011;50075;49.484;11.238;2023-07-16T02:56:18;14.27;;;4.60;;
63906;SDS011;50075;49.484;11.238;2023-07-16T02:58:43;10.23;;;4.47;;
63906;SDS011;50075;49.484;11.238;2023-07-16T03:01:09;14.10;;;4.50;;
63906;SDS011;50075;49.484;11.238;2023-07-16T03:03:34;17.90;;;5.20;;
63906;SDS011;50075;49.484;11.238;2023-07-16T03:06:00;13.05;;;4.68;;
63906;SDS011;50075;49.484;11.238;2023-07-16T03:08:25;18.50;;;5.70;;
63906;SDS011;50075;49.484;11.238;2023-07-16T03:10:54;13.13;;;4.68;;
63906;SDS011;50075;49.484;11.238;2023-07-16T03:13:20;14.33;;;4.73;;
63906;SDS011;50075;49.484;11.238;2023-07-16T03:15:45;10.10;;;4.00;;
63906;SDS011;50075;49.484;11.238;2023-07-16T03:18:10;16.20;;;4.30;;
63906;SDS011;50075;49.484;11.238;2023-07-16T03:20:35;19.13;;;5.60;;
63906;SDS011;50075;49.484;11.238;2023-07-16T03:23:01;11.30;;;4.53;;
63906;SDS011;50075;49.484;11.238;2023-07-16T03:25:26;21.40;;;5.33;;
63906;SDS011;50075;49.484;11.238;2023-07-16T03:27:51;12.07;;;3.90;;
63906;SDS011;50075;49.484;11.238;2023-07-16T03:30:17;13.35;;;4.53;;
63906;SDS011;50075;49.484;11.238;2023-07-16T03:32:42;16.27;;;4.88;;
63906;SDS011;50075;49.484;11.238;2023-07-16T03:35:07;14.90;;;4.53;;
63906;SDS011;50075;49.484;11.238;2023-07-16T03:37:32;16.52;;;5.20;;
63906;SDS011;50075;49.484;11.238;2023-07-16T03:40:11;15.30;;;4.10;;
63906;SDS011;50075;49.484;11.238;2023-07-16T03:42:36;15.13;;;4.47;;
63906;SDS011;50075;49.484;11.238;2023-07-16T03:45:02;13.60;;;4.37;;
63906;SDS011;50075;49.484;11.238;2023-07-16T03:47:27;15.00;;;4.47;;
63906;SDS011;50075;49.484;11.238;2023-07-16T03:49:52;12.30;;;3.83;;
63906;SDS011;50075;49.484;11.238;2023-07-16T03:52:17;12.50;;;4.20;;
63906;SDS011;50075;49.484;11.238;2023-07-16T03:54:43;12.50;;;3.90;;
63906;SDS011;50075;49.484;11.238;2023-07-16T03:57:08;12.85;;;4.03;;
63906;SDS011;50075;49.484;11.238;2023-07-16T03:59:33;22.17;;;5.22;;
63906;SDS011;50075;49.484;11.238;2023-07-16T04:01:58;12.25;;;3.83;;
63906;SDS011;50075;49.484;11.238;2023-07-16T04:04:24;12.70;;;3.60;;
63906;SDS011;50075;49.484;11.238;2023-07-16T04:06:49;9.77;;;3.30;;
63906;SDS011;50075;49.484;11.238;2023-07-16T04:09:14;12.27;;;3.57;;
63906;SDS011;50075;49.484;11.238;2023-07-16T04:11:39;17.57;;;4.57;;
63906;SDS011;50075;49.484;11.238;2023-07-16T04:14:05;11.18;;;3.55;;
63906;SDS011;50075;49.484;11.238;2023-07-16T04:16:30;20.03;;;4.90;;
63906;SDS011;50075;49.484;11.238;2023-07-16T04:18:55;14.63;;;3.90;;
63906;SDS011;50075;49.484;11.238;2023-07-16T04:21:20;8.80;;;3.40;;
63906;SDS011;50075;49.484;11.238;2023-07-16T04:23:46;12.48;;;3.67;;
63906;SDS011;50075;49.484;11.238;2023-07-16T04:26:11;15.13;;;4.40;;
63906;SDS011;50075;49.484;11.238;2023-07-16T04:28:36;15.27;;;4.13;;
63906;SDS011;50075;49.484;11.238;2023-07-16T04:31:02;12.80;;;4.45;;
63906;SDS011;50075;49.484;11.238;2023-07-16T04:33:27;17.37;;;4.40;;
63906;SDS011;50075;49.484;11.238;2023-07-16T04:35:52;12.30;;;3.70;;
63906;SDS011;50075;49.484;11.238;2023-07-16T04:38:17;104.90;;;30.90;;
63906;SDS011;50075;49.484;11.238;2023-07-16T04:40:42;81.53;;;73.73;;
63906;SDS011;50075;49.484;11.238;2023-07-16T04:43:08;93.22;;;65.72;;
63906;SDS011;50075;49.484;11.238;2023-07-16T04:45:33;107.82;;;71.57;;
63906;SDS011;50075;49.484;11.238;2023-07-16T04:47:59;70.53;;;62.17;;
63906;SDS011;50075;49.484;11.238;2023-07-16T04:50:24;120.50;;;36.50;;
63906;SDS011;50075;49.484;11.238;2023-07-16T04:52:49;21.08;;;15.68;;
63906;SDS011;50075;49.484;11.238;2023-07-16T04:55:14;110.70;;;99.43;;
63906;SDS011;50075;49.484;11.238;2023-07-16T04:57:40;94.80;;;84.53;;
63906;SDS011;50075;49.484;11.238;2023-07-16T05:00:05;45.10;;;32.67;;
63906;SDS011;50075;49.484;11.238;2023-07-16T05:02:31;120.30;;;75.05;;
63906;SDS011;50075;49.484;11.238;2023-07-16T05:04:56;47.80;;;41.65;;
63906;SDS011;50075;49.484;11.238;2023-07-16T05:07:21;123.87;;;81.43;;
63906;SDS011;50075;49.484;11.238;2023-07-16T05:09:47;51.13;;;35.43;;
63906;SDS011;50075;49.484;11.238;2023-07-16T05:12:12;209.23;;;191.43;;
63906;SDS011;50075;49.484;11.238;2023-07-16T05:14:44;180.03;;;120.77;;
63906;SDS011;50075;49.484;11.238;2023-07-16T05:17:10;151.10;;;125.78;;
63906;SDS011;50075;49.484;11.238;2023-07-16T05:19:35;160.70;;;147.53;;
63906;SDS011;50075;49.484;11.238;2023-07-16T05:22:01;134.40;;;121.10;;
63906;SDS011;50075;49.484;11.238;2023-07-16T05:24:26;289.60;;;263.03;;
63906;SDS011;50075;49.484;11.238;2023-07-16T05:26:51;198.18;;;183.10;;
63906;SDS011;50075;49.484;11.238;2023-07-16T05:29:19;175.48;;;156.02;;
63906;SDS011;50075;49.484;11.238;2023-07-16T05:31:44;225.85;;;207.48;;
63906;SDS011;50075;49.484;11.238;2023-07-16T05:34:11;131.32;;;119.78;;
63906;SDS011;50075;49.484;11.238;2023-07-16T05:36:36;271.88;;;246.80;;
63906;SDS011;50075;49.484;11.238;2023-07-16T05:39:01;254.37;;;232.50;;
63906;SDS011;50075;49.484;11.238;2023-07-16T05:41:27;299.10;;;272.83;;
63906;SDS011;50075;49.484;11.238;2023-07-16T05:43:52;227.63;;;209.47;;
63906;SDS011;50075;49.484;11.238;2023-07-16T05:46:17;140.65;;;129.02;;
63906;SDS011;50075;49.484;11.238;2023-07-16T05:48:42;213.43;;;193.27;;
63906;SDS011;50075;49.484;11.238;2023-07-16T05:51:08;248.73;;;226.97;;
63906;SDS011;50075;49.484;11.238;2023-07-16T05:53:33;238.07;;;216.87;;
63906;SDS011;50075;49.484;11.238;2023-07-16T05:55:58;163.32;;;149.30;;
63906;SDS011;50075;49.484;11.238;2023-07-16T05:58:24;242.45;;;223.60;;
63906;SDS011;50075;49.484;11.238;2023-07-16T06:00:49;182.25;;;167.77;;
63906;SDS011;50075;49.484;11.238;2023-07-16T06:03:15;201.80;;;184.00;;
63906;SDS011;50075;49.484;11.238;2023-07-16T06:05:42;284.73;;;259.65;;
63906;SDS011;50075;49.484;11.238;2023-07-16T06:08:07;249.23;;;229.23;;
63906;SDS011;50075;49.484;11.238;2023-07-16T06:10:33;355.35;;;326.50;;
63906;SDS011;50075;49.484;11.238;2023-07-16T06:12:58;326.15;;;298.23;;
63906;SDS011;50075;49.484;11.238;2023-07-16T06:15:24;326.47;;;300.93;;
63906;SDS011;50075;49.484;11.238;2023-07-16T06:17:49;300.35;;;276.02;;
63906;SDS011;50075;49.484;11.238;2023-07-16T06:20:14;272.07;;;249.93;;
63906;SDS011;50075;49.484;11.238;2023-07-16T06:22:39;372.93;;;342.43;;
63906;SDS011;50075;49.484;11.238;2023-07-16T06:25:05;298.73;;;274.60;;
63906;SDS011;50075;49.484;11.238;2023-07-16T06:27:30;300.13;;;277.15;;
63906;SDS011;50075;49.484;11.238;2023-07-16T06:29:55;330.67;;;303.13;;
63906;SDS011;50075;49.484;11.238;2023-07-16T06:32:21;348.23;;;321.48;;
63906;SDS011;50075;49.484;11.238;2023-07-16T06:34:46;235.00;;;215.48;;
63906;SDS011;50075;49.484;11.238;2023-07-16T06:37:11;292.80;;;270.03;;
63906;SDS011;50075;49.484;11.238;2023-07-16T06:39:37;159.03;;;144.10;;
63906;SDS011;50075;49.484;11.238;2023-07-16T06:42:02;292.48;;;267.25;;
63906;SDS011;50075;49.484;11.238;2023-07-16T06:44:27;231.43;;;213.48;;
63906;SDS011;50075;49.484;11.238;2023-07-16T06:46:52;271.90;;;245.27;;
63906;SDS011;50075;49.484;11.238;2023-07-16T06:49:18;291.00;;;266.10;;
63906;SDS011;50075;49.484;11.238;2023-07-16T06:51:43;279.90;;;209.45;;
63906;SDS011;50075;49.484;11.238;2023-07-16T06:54:08;222.03;;;203.33;;
63906;SDS011;50075;49.484;11.238;2023-07-16T06:56:34;239.48;;;219.35;;
63906;SDS011;50075;49.484;11.238;2023-07-16T06:58:59;266.75;;;244.93;;
63906;SDS011;50075;49.484;11.238;2023-07-16T07:01:24;342.60;;;306.70;;
63906;SDS011;50075;49.484;11.238;2023-07-16T07:03:52;245.60;;;220.63;;
63906;SDS011;50075;49.484;11.238;2023-07-16T07:06:17;382.13;;;340.58;;
63906;SDS011;50075;49.484;11.238;2023-07-16T07:08:43;355.07;;;325.27;;
63906;SDS011;50075;49.484;11.238;2023-07-16T07:11:08;255.13;;;235.47;;
63906;SDS011;50075;49.484;11.238;2023-07-16T07:13:33;314.77;;;284.87;;
63906;SDS011;50075;49.484;11.238;2023-07-16T07:15:58;240.23;;;220.17;;
63906;SDS011;50075;49.484;11.238;2023-07-16T07:18:24;276.07;;;251.93;;
63906;SDS011;50075;49.484;11.238;2023-07-16T07:20:49;443.23;;;403.20;;
63906;SDS011;50075;49.484;11.238;2023-07-16T07:23:15;320.88;;;266.95;;
63906;SDS011;50075;49.484;11.238;2023-07-16T07:25:40;385.05;;;299.52;;
63906;SDS011;50075;49.484;11.238;2023-07-16T07:28:06;323.03;;;291.47;;
63906;SDS011;50075;49.484;11.238;2023-07-16T07:30:31;471.08;;;434.60;;
63906;SDS011;50075;49.484;11.238;2023-07-16T07:32:56;316.10;;;285.33;;
63906;SDS011;50075;49.484;11.238;2023-07-16T07:35:22;393.80;;;358.52;;
63906;SDS011;50075;49.484;11.238;2023-07-16T07:37:47;334.20;;;307.20;;
63906;SDS011;50075;49.484;11.238;2023-07-16T07:40:12;316.60;;;291.65;;
63906;SDS011;50075;49.484;11.238;2023-07-16T07:42:37;320.42;;;296.00;;
63906;SDS011;50075;49.484;11.238;2023-07-16T07:45:03;289.40;;;267.45;;
63906;SDS011;50075;49.484;11.238;2023-07-16T07:47:28;402.48;;;368.50;;
63906;SDS011;50075;49.484;11.238;2023-07-16T07:49:54;424.47;;;385.10;;
63906;SDS011;50075;49.484;11.238;2023-07-16T07:52:19;399.60;;;369.73;;
63906;SDS011;50075;49.484;11.238;2023-07-16T07:54:44;324.15;;;255.82;;
63906;SDS011;50075;49.484;11.238;2023-07-16T07:57:10;227.25;;;208.65;;
63906;SDS011;50075;49.484;11.238;2023-07-16T07:59:35;341.52;;;314.20;;
63906;SDS011;50075;49.484;11.238;2023-07-16T08:02:00;361.38;;;327.77;;
63906;SDS011;50075;49.484;11.238;2023-07-16T08:04:26;384.05;;;351.27;;
63906;SDS011;50075;49.484;11.238;2023-07-16T08:06:53;273.90;;;249.35;;
63906;SDS011;50075;49.484;11.238;2023-07-16T08:09:18;241.98;;;185.18;;
63906;SDS011;50075;49.484;11.238;2023-07-16T08:11:43;348.57;;;313.13;;
63906;SDS011;50075;49.484;11.238;2023-07-16T08:14:08;289.90;;;266.35;;
63906;SDS011;50075;49.484;11.238;2023-07-16T08:16:33;248.97;;;228.60;;
63906;SDS011;50075;49.484;11.238;2023-07-16T08:18:59;302.50;;;278.83;;
63906;SDS011;50075;49.484;11.238;2023-07-16T08:21:24;362.37;;;330.77;;
63906;SDS011;50075;49.484;11.238;2023-07-16T08:23:49;183.27;;;151.35;;
63906;SDS011;50075;49.484;11.238;2023-07-16T08:26:15;207.20;;;192.32;;
63906;SDS011;50075;49.484;11.238;2023-07-16T08:28:41;385.90;;;352.35;;
63906;SDS011;50075;49.484;11.238;2023-07-16T08:31:06;223.00;;;200.15;;
63906;SDS011;50075;49.484;11.238;2023-07-16T08:33:31;351.73;;;320.70;;
63906;SDS011;50075;49.484;11.238;2023-07-16T08:35:56;270.00;;;242.83;;
63906;SDS011;50075;49.484;11.238;2023-07-16T08:38:22;394.57;;;363.60;;
63906;SDS011;50075;49.484;11.238;2023-07-16T08:40:47;310.93;;;284.60;;
63906;SDS011;50075;49.484;11.238;2023-07-16T08:43:13;326.02;;;299.67;;
63906;SDS011;50075;49.484;11.238;2023-07-16T08:45:41;239.18;;;219.25;;
63906;SDS011;50075;49.484;11.238;2023-07-16T08:48:09;281.48;;;258.00;;
63906;SDS011;50075;49.484;11.238;2023-07-16T08:50:35;302.67;;;275.38;;
63906;SDS011;50075;49.484;11.238;2023-07-16T08:53:01;325.67;;;298.92;;
63906;SDS011;50075;49.484;11.238;2023-07-16T08:55:26;379.17;;;348.73;;
63906;SDS011;50075;49.484;11.238;2023-07-16T08:57:52;282.65;;;256.73;;
63906;SDS011;50075;49.484;11.238;2023-07-16T09:00:17;207.88;;;189.90;;
63906;SDS011;50075;49.484;11.238;2023-07-16T09:02:43;304.50;;;279.55;;
63906;SDS011;50075;49.484;11.238;2023-07-16T09:05:09;366.57;;;337.17;;
63906;SDS011;50075;49.484;11.238;2023-07-16T09:07:35;346.58;;;314.42;;
63906;SDS011;50075;49.484;11.238;2023-07-16T09:10:01;370.00;;;338.40;;
63906;SDS011;50075;49.484;11.238;2023-07-16T09:12:26;291.30;;;268.80;;
63906;SDS011;50075;49.484;11.238;2023-07-16T09:14:52;425.77;;;386.58;;
63906;SDS011;50075;49.484;11.238;2023-07-16T09:17:23;360.87;;;325.53;;
63906;SDS011;50075;49.484;11.238;2023-07-16T09:19:52;272.75;;;251.07;;
63906;SDS011;50075;49.484;11.238;2023-07-16T09:22:18;338.17;;;308.23;;
63906;SDS011;50075;49.484;11.238;2023-07-16T09:24:46;321.40;;;292.73;;
63906;SDS011;50075;49.484;11.238;2023-07-16T09:27:12;372.45;;;343.35;;
63906;SDS011;50075;49.484;11.238;2023-07-16T09:29:38;309.60;;;284.17;;
63906;SDS011;50075;49.484;11.238;2023-07-16T09:32:03;345.45;;;317.30;;
63906;SDS011;50075;49.484;11.238;2023-07-16T09:34:30;406.17;;;372.30;;
63906;SDS011;50075;49.484;11.238;2023-07-16T09:36:56;404.50;;;366.57;;
63906;SDS011;50075;49.484;11.238;2023-07-16T09:39:21;468.48;;;433.75;;
63906;SDS011;50075;49.484;11.238;2023-07-16T09:41:47;418.25;;;383.58;;
63906;SDS011;50075;49.484;11.238;2023-07-16T09:44:13;493.40;;;455.63;;
63906;SDS011;50075;49.484;11.238;2023-07-16T09:46:39;435.33;;;400.38;;
63906;SDS011;50075;49.484;11.238;2023-07-16T09:49:04;471.73;;;434.63;;
63906;SDS011;50075;49.484;11.238;2023-07-16T09:51:29;451.87;;;405.70;;
63906;SDS011;50075;49.484;11.238;2023-07-16T09:53:55;348.60;;;317.73;;
63906;SDS011;50075;49.484;11.238;2023-07-16T09:56:21;357.15;;;321.02;;
63906;SDS011;50075;49.484;11.238;2023-07-16T09:58:46;463.30;;;353.50;;
63906;SDS011;50075;49.484;11.238;2023-07-16T10:01:11;497.60;;;458.57;;
63906;SDS011;50075;49.484;11.238;2023-07-16T10:03:37;402.55;;;364.30;;
63906;SDS011;50075;49.484;11.238;2023-07-16T10:06:12;503.65;;;457.42;;
63906;SDS011;50075;49.484;11.238;2023-07-16T10:08:38;505.73;;;463.60;;
63906;SDS011;50075;49.484;11.238;2023-07-16T10:11:03;504.07;;;460.57;;
63906;SDS011;50075;49.484;11.238;2023-07-16T10:13:28;463.80;;;426.70;;
63906;SDS011;50075;49.484;11.238;2023-07-16T10:15:57;469.33;;;431.40;;
63906;SDS011;50075;49.484;11.238;2023-07-16T10:18:26;570.95;;;524.33;;
63906;SDS011;50075;49.484;11.238;2023-07-16T10:21:05;425.30;;;388.58;;
63906;SDS011;50075;49.484;11.238;2023-07-16T10:23:36;486.20;;;446.90;;
63906;SDS011;50075;49.484;11.238;2023-07-16T10:26:02;448.15;;;400.95;;
63906;SDS011;50075;49.484;11.238;2023-07-16T10:28:32;512.65;;;468.83;;
63906;SDS011;50075;49.484;11.238;2023-07-16T10:30:58;336.67;;;304.08;;
63906;SDS011;50075;49.484;11.238;2023-07-16T10:33:24;440.50;;;404.67;;
63906;SDS011;50075;49.484;11.238;2023-07-16T10:35:49;423.10;;;390.07;;
63906;SDS011;50075;49.484;11.238;2023-07-16T10:38:14;440.63;;;403.37;;
63906;SDS011;50075;49.484;11.238;2023-07-16T10:40:40;600.97;;;431.57;;
63906;SDS011;50075;49.484;11.238;2023-07-16T10:43:06;322.38;;;295.67;;
63906;SDS011;50075;49.484;11.238;2023-07-16T10:45:31;485.48;;;448.08;;
63906;SDS011;50075;49.484;11.238;2023-07-16T10:47:56;519.17;;;477.10;;
63906;SDS011;50075;49.484;11.238;2023-07-16T10:50:21;564.17;;;516.70;;
63906;SDS011;50075;49.484;11.238;2023-07-16T10:52:50;463.77;;;427.65;;
63906;SDS011;50075;49.484;11.238;2023-07-16T10:55:15;552.35;;;509.80;;
63906;SDS011;50075;49.484;11.238;2023-07-16T10:57:40;531.73;;;484.47;;
63906;SDS011;50075;49.484;11.238;2023-07-16T11:00:06;364.43;;;333.67;;
63906;SDS011;50075;49.484;11.238;2023-07-16T11:02:38;499.38;;;337.42;;
63906;SDS011;50075;49.484;11.238;2023-07-16T11:05:05;433.75;;;395.40;;
63906;SDS011;50075;49.484;11.238;2023-07-16T11:07:30;466.95;;;368.50;;
63906;SDS011;50075;49.484;11.238;2023-07-16T11:09:55;386.47;;;355.20;;
63906;SDS011;50075;49.484;11.238;2023-07-16T11:12:22;498.33;;;446.77;;
63906;SDS011;50075;49.484;11.238;2023-07-16T11:14:54;502.65;;;459.60;;
63906;SDS011;50075;49.484;11.238;2023-07-16T11:19:45;505.55;;;465.08;;
63906;SDS011;50075;49.484;11.238;2023-07-16T11:22:10;440.50;;;405.63;;
63906;SDS011;50075;49.484;11.238;2023-07-16T11:24:39;366.37;;;336.30;;
63906;SDS011;50075;49.484;11.238;2023-07-16T11:27:06;502.23;;;461.85;;
63906;SDS011;50075;49.484;11.238;2023-07-16T11:29:34;548.10;;;500.27;;
63906;SDS011;50075;49.484;11.238;2023-07-16T11:32:01;456.10;;;348.48;;
63906;SDS011;50075;49.484;11.238;2023-07-16T11:34:27;545.40;;;499.63;;
63906;SDS011;50075;49.484;11.238;2023-07-16T11:36:52;493.50;;;446.57;;
63906;SDS011;50075;49.484;11.238;2023-07-16T11:42:38;506.13;;;465.38;;
63906;SDS011;50075;49.484;11.238;2023-07-16T11:45:04;577.03;;;527.20;;
63906;SDS011;50075;49.484;11.238;2023-07-16T11:47:30;472.48;;;434.20;;
63906;SDS011;50075;49.484;11.238;2023-07-16T11:49:55;386.80;;;353.83;;
63906;SDS011;50075;49.484;11.238;2023-07-16T11:52:23;466.55;;;422.98;;
63906;SDS011;50075;49.484;11.238;2023-07-16T11:54:48;642.03;;;586.97;;
63906;SDS011;50075;49.484;11.238;2023-07-16T11:57:14;467.40;;;426.90;;
63906;SDS011;50075;49.484;11.238;2023-07-16T11:59:39;437.00;;;401.63;;
63906;SDS011;50075;49.484;11.238;2023-07-16T12:02:04;395.40;;;356.37;;
63906;SDS011;50075;49.484;11.238;2023-07-16T12:04:29;437.05;;;400.23;;
63906;SDS011;50075;49.484;11.238;2023-07-16T12:06:55;383.23;;;340.02;;
63906;SDS011;50075;49.484;11.238;2023-07-16T12:09:20;457.93;;;420.07;;
63906;SDS011;50075;49.484;11.238;2023-07-16T12:11:45;332.77;;;304.40;;
63906;SDS011;50075;49.484;11.238;2023-07-16T12:14:10;362.15;;;240.05;;
63906;SDS011;50075;49.484;11.238;2023-07-16T12:16:37;432.55;;;393.50;;
63906;SDS011;50075;49.484;11.238;2023-07-16T12:19:03;383.98;;;351.10;;
63906;SDS011;50075;49.484;11.238;2023-07-16T12:21:28;496.63;;;456.53;;
63906;SDS011;50075;49.484;11.238;2023-07-16T12:23:54;559.50;;;508.43;;
63906;SDS011;50075;49.484;11.238;2023-07-16T12:26:20;760.20;;;473.23;;
63906;SDS011;50075;49.484;11.238;2023-07-16T12:28:45;514.90;;;470.42;;
63906;SDS011;50075;49.484;11.238;2023-07-16T12:31:11;369.20;;;334.52;;
63906;SDS011;50075;49.484;11.238;2023-07-16T12:33:36;379.35;;;351.30;;
63906;SDS011;50075;49.484;11.238;2023-07-16T12:36:01;495.87;;;457.87;;
63906;SDS011;50075;49.484;11.238;2023-07-16T12:38:28;509.23;;;469.73;;
63906;SDS011;50075;49.484;11.238;2023-07-16T12:40:53;404.25;;;369.75;;
63906;SDS011;50075;49.484;11.238;2023-07-16T12:43:18;449.20;;;404.98;;
63906;SDS011;50075;49.484;11.238;2023-07-16T12:45:43;541.67;;;484.93;;
63906;SDS011;50075;49.484;11.238;2023-07-16T12:48:09;358.33;;;329.17;;
63906;SDS011;50075;49.484;11.238;2023-07-16T12:50:34;445.77;;;409.05;;
63906;SDS011;50075;49.484;11.238;2023-07-16T12:52:59;348.40;;;319.23;;
63906;SDS011;50075;49.484;11.238;2023-07-16T12:55:24;384.43;;;350.47;;
63906;SDS011;50075;49.484;11.238;2023-07-16T12:57:50;339.73;;;309.37;;
63906;SDS011;50075;49.484;11.238;2023-07-16T13:00:15;384.90;;;353.58;;
63906;SDS011;50075;49.484;11.238;2023-07-16T13:02:40;330.87;;;303.53;;
63906;SDS011;50075;49.484;11.238;2023-07-16T13:05:06;487.33;;;448.33;;
63906;SDS011;50075;49.484;11.238;2023-07-16T13:07:31;510.70;;;472.30;;
63906;SDS011;50075;49.484;11.238;2023-07-16T13:09:57;428.95;;;394.02;;
63906;SDS011;50075;49.484;11.238;2023-07-16T13:12:22;500.90;;;459.38;;
63906;SDS011;50075;49.484;11.238;2023-07-16T13:14:47;456.17;;;417.13;;
63906;SDS011;50075;49.484;11.238;2023-07-16T13:17:12;421.17;;;388.30;;
63906;SDS011;50075;49.484;11.238;2023-07-16T13:19:40;484.13;;;437.05;;
63906;SDS011;50075;49.484;11.238;2023-07-16T13:22:05;425.97;;;390.80;;
63906;SDS011;50075;49.484;11.238;2023-07-16T13:24:30;444.43;;;409.50;;
63906;SDS011;50075;49.484;11.238;2023-07-16T13:26:55;586.33;;;533.13;;
63906;SDS011;50075;49.484;11.238;2023-07-16T13:29:21;493.77;;;456.55;;
63906;SDS011;50075;49.484;11.238;2023-07-16T13:31:46;765.75;;;258.55;;
63906;SDS011;50075;49.484;11.238;2023-07-16T13:34:11;349.00;;;319.40;;
63906;SDS011;50075;49.484;11.238;2023-07-16T13:36:37;432.50;;;397.67;;
63906;SDS011;50075;49.484;11.238;2023-07-16T13:39:02;298.63;;;272.90;;
63906;SDS011;50075;49.484;11.238;2023-07-16T13:41:29;410.48;;;374.75;;
63906;SDS011;50075;49.484;11.238;2023-07-16T13:43:55;447.90;;;413.10;;
63906;SDS011;50075;49.484;11.238;2023-07-16T13:46:20;320.98;;;292.95;;
63906;SDS011;50075;49.484;11.238;2023-07-16T13:48:45;315.87;;;288.90;;
63906;SDS011;50075;49.484;11.238;2023-07-16T13:51:11;477.10;;;436.20;;
63906;SDS011;50075;49.484;11.238;2023-07-16T13:53:36;498.00;;;458.47;;
63906;SDS011;50075;49.484;11.238;2023-07-16T13:56:01;335.03;;;309.63;;
63906;SDS011;50075;49.484;11.238;2023-07-16T13:58:26;316.73;;;291.60;;
63906;SDS011;50075;49.484;11.238;2023-07-16T14:00:51;455.30;;;411.53;;